createdAt,value
2024-01-15T00:04:00.442Z,-1.20
2024-01-15T00:09:22.402Z,-1.20
2024-01-15T00:14:44.250Z,-1.14
2024-01-15T00:20:06.909Z,-1.44
2024-01-15T00:25:28.853Z,-1.46
2024-01-15T00:30:50.800Z,-1.58
2024-01-15T00:36:12.801Z,-1.61
2024-01-15T00:41:34.673Z,-1.75
2024-01-15T00:46:56.464Z,-1.73
2024-01-15T00:52:18.348Z,-1.82
2024-01-15T01:59:35.770Z,-1.02
2024-01-15T02:04:57.945Z,-1.09
2024-01-15T02:10:19.853Z,-1.01
2024-01-15T02:15:41.954Z,-0.98
2024-01-15T02:21:04.041Z,-1.09
2024-01-15T02:26:26.125Z,-1.17
2024-01-15T02:31:48.044Z,-1.24
2024-01-15T02:37:09.894Z,-1.17
2024-01-15T02:42:31.730Z,-1.24
2024-01-15T02:47:53.549Z,-1.31
2024-01-15T02:53:15.440Z,-1.29
2024-01-15T02:58:37.240Z,-1.55
2024-01-15T03:03:59.164Z,-1.70
2024-01-15T03:09:21.020Z,-1.66
2024-01-15T03:14:43.838Z,-1.64
2024-01-15T03:20:06.255Z,-1.64
2024-01-15T03:25:28.109Z,-1.66
2024-01-15T03:30:50.055Z,-1.63
2024-01-15T03:36:12.192Z,-1.66
2024-01-15T03:41:34.052Z,-1.51
2024-01-15T03:46:56.061Z,-1.58
2024-01-15T03:52:17.846Z,-1.69
2024-01-15T03:57:39.840Z,-1.78
2024-01-15T04:03:01.675Z,-1.75
2024-01-15T04:08:23.475Z,-1.73
2024-01-15T04:13:45.261Z,-1.63
2024-01-15T04:19:07.403Z,-1.33
2024-01-15T04:24:29.397Z,-1.28
2024-01-15T04:29:51.305Z,-1.22
2024-01-15T04:35:13.828Z,-1.10
2024-01-15T04:40:36.628Z,-0.92
2024-01-15T04:45:58.658Z,-0.71
2024-01-15T04:51:20.542Z,-0.65
2024-01-15T04:56:42.348Z,-0.49
2024-01-15T05:02:04.351Z,-0.31
2024-01-15T05:07:26.254Z,-0.26
2024-01-15T05:12:48.107Z,-0.28
2024-01-15T05:18:10.267Z,-0.18
2024-01-15T05:23:32.599Z,-0.32
2024-01-15T05:28:54.448Z,-0.34
2024-01-15T05:34:16.266Z,-0.36
2024-01-15T05:39:38.183Z,-0.20
2024-01-15T05:45:00.753Z,-0.14
2024-01-15T05:50:23.266Z,-0.12
2024-01-15T05:55:45.039Z,-0.11
2024-01-15T06:01:06.909Z,-0.10
2024-01-15T06:06:28.751Z,-0.12
2024-01-15T06:11:50.786Z,-0.10
2024-01-15T06:17:12.652Z,-0.14
2024-01-15T06:22:34.669Z,-0.11
2024-01-15T06:27:56.625Z,-0.11
2024-01-15T06:33:18.621Z,-0.09
2024-01-15T06:38:40.507Z,-0.06
2024-01-15T06:44:02.285Z,-0.12
2024-01-15T06:49:24.571Z,-0.14
2024-01-15T06:54:46.547Z,-0.12
2024-01-15T07:00:09.389Z,-0.14
2024-01-15T07:05:31.939Z,-0.11
2024-01-15T07:10:53.878Z,-0.08
2024-01-15T07:16:22.476Z,0.08
2024-01-15T07:21:54.744Z,0.10
2024-01-15T07:27:18.300Z,0.07
2024-01-15T07:32:41.991Z,-0.04
2024-01-15T07:38:03.954Z,-0.05
2024-01-15T07:43:25.743Z,-0.02
2024-01-15T07:48:47.764Z,0.11
2024-01-15T07:54:09.719Z,0.14
2024-01-15T07:59:31.662Z,0.04
2024-01-15T08:04:53.552Z,0.08
2024-01-15T08:10:15.675Z,0.18
2024-01-15T08:15:37.649Z,0.18
2024-01-15T08:20:59.661Z,0.38
2024-01-15T08:26:22.540Z,0.42
2024-01-15T08:31:44.471Z,0.28
2024-01-15T08:37:06.333Z,0.40
2024-01-15T08:42:28.151Z,0.47
2024-01-15T08:47:50.080Z,0.54
2024-01-15T08:53:11.971Z,0.67
2024-01-15T08:58:33.821Z,0.79
2024-01-15T09:03:55.828Z,0.69
2024-01-15T09:09:19.126Z,0.73
2024-01-15T09:14:41.037Z,0.78
2024-01-15T09:20:05.438Z,0.87
2024-01-15T09:25:27.353Z,0.80
2024-01-15T09:30:49.302Z,0.88
2024-01-15T09:36:11.253Z,1.09
2024-01-15T09:41:33.150Z,1.18
2024-01-15T09:46:57.023Z,1.22
2024-01-15T09:52:20.427Z,1.27
2024-01-15T09:57:43.127Z,1.31
2024-01-15T10:03:06.014Z,1.24
2024-01-15T10:08:27.872Z,1.32
2024-01-15T10:13:56.793Z,1.27
2024-01-15T10:19:19.625Z,1.23
2024-01-15T10:24:42.199Z,1.28
2024-01-15T10:30:04.612Z,1.36
2024-01-15T10:35:36.084Z,1.50
2024-01-15T10:40:58.259Z,1.46
2024-01-15T10:46:20.083Z,1.45
2024-01-15T10:51:43.528Z,1.51
2024-01-15T10:57:06.512Z,1.52
2024-01-15T11:02:29.226Z,1.78
2024-01-15T11:07:51.139Z,1.88
2024-01-15T11:13:15.791Z,2.03
2024-01-15T11:18:42.658Z,1.92
2024-01-15T11:24:07.923Z,1.84
2024-01-15T11:29:31.080Z,1.64
2024-01-15T11:34:59.212Z,1.68
2024-01-15T11:40:38.758Z,1.51
2024-01-15T11:46:03.867Z,1.41
2024-01-15T11:51:25.920Z,1.33
2024-01-15T11:56:48.137Z,1.28
2024-01-15T12:02:12.693Z,1.20
2024-01-15T12:07:34.906Z,1.13
2024-01-15T12:13:13.566Z,1.21
2024-01-15T12:18:35.522Z,1.23
2024-01-15T12:23:57.430Z,1.05
2024-01-15T12:29:19.605Z,0.92
2024-01-15T12:34:41.555Z,0.71
2024-01-15T12:40:05.617Z,0.63
2024-01-15T12:45:27.719Z,0.41
2024-01-15T12:50:53.302Z,0.49
2024-01-15T12:56:15.122Z,0.33
2024-01-15T13:01:37.292Z,0.38
2024-01-15T13:06:59.293Z,0.43
2024-01-15T13:12:21.782Z,0.58
2024-01-15T13:17:44.850Z,0.61
2024-01-15T13:23:06.963Z,0.70
2024-01-15T13:28:28.798Z,0.48
2024-01-15T13:33:50.826Z,0.53
2024-01-15T13:39:12.754Z,0.52
2024-01-15T13:44:34.754Z,0.60
2024-01-15T13:49:56.601Z,0.53
2024-01-15T13:55:18.717Z,0.50
2024-01-15T14:00:44.494Z,0.60
2024-01-15T14:06:09.965Z,0.57
2024-01-15T14:11:32.326Z,0.53
2024-01-15T14:16:54.112Z,0.58
2024-01-15T14:22:16.000Z,0.47
2024-01-15T14:27:37.954Z,0.58
2024-01-15T14:33:01.241Z,0.60
2024-01-15T14:38:23.706Z,0.52
2024-01-15T14:43:46.006Z,0.49
2024-01-15T14:49:07.913Z,0.24
2024-01-15T14:54:29.812Z,0.23
2024-01-15T14:59:51.598Z,0.08
2024-01-15T15:05:14.729Z,-0.02
2024-01-15T15:10:37.007Z,-0.04
2024-01-15T15:15:58.898Z,-0.07
2024-01-15T15:21:20.763Z,-0.04
2024-01-15T15:26:42.651Z,-0.01
2024-01-15T15:32:04.750Z,0.05
2024-01-15T15:37:26.953Z,0.11
2024-01-15T15:42:48.773Z,0.10
2024-01-15T15:48:10.803Z,0.12
2024-01-15T15:53:32.689Z,0.13
2024-01-15T15:58:54.549Z,0.11
2024-01-15T16:04:16.849Z,0.17
2024-01-15T16:09:38.918Z,0.25
2024-01-15T16:15:02.204Z,0.17
2024-01-15T16:23:30.404Z,-0.01
2024-01-15T16:26:07.956Z,0.11
2024-01-15T16:31:30.092Z,0.05
2024-01-15T16:36:52.285Z,0.14
2024-01-15T16:42:14.244Z,0.12
2024-01-15T16:47:36.176Z,0.12
2024-01-15T16:52:58.404Z,0.10
2024-01-15T16:58:20.311Z,0.10
2024-01-15T17:03:42.319Z,0.08
2024-01-15T17:09:04.216Z,0.15
2024-01-15T17:14:26.062Z,0.13
2024-01-15T17:19:48.319Z,-0.05
2024-01-15T17:25:10.168Z,0.05
2024-01-15T17:30:31.941Z,-0.04
2024-01-15T17:35:56.119Z,-0.05
2024-01-15T17:41:18.064Z,-0.18
2024-01-15T17:46:40.322Z,-0.09
2024-01-15T17:52:02.694Z,-0.02
2024-01-15T17:57:24.561Z,-0.07
2024-01-15T18:02:49.949Z,-0.02
2024-01-15T18:08:14.629Z,-0.03
2024-01-15T18:13:36.434Z,-0.17
2024-01-15T18:19:01.087Z,-0.26
2024-01-15T18:24:23.026Z,-0.32
2024-01-15T18:29:45.216Z,-0.46
2024-01-15T18:35:07.492Z,-0.52
2024-01-15T18:40:35.774Z,-0.56
2024-01-15T18:45:57.593Z,-0.67
2024-01-15T18:51:25.718Z,-0.53
2024-01-15T18:56:47.672Z,-0.48
2024-01-15T19:02:09.691Z,-0.35
2024-01-15T19:07:33.937Z,-0.39
2024-01-15T19:12:56.232Z,-0.37
2024-01-15T19:18:18.181Z,-0.29
2024-01-15T19:23:40.366Z,-0.30
2024-01-15T19:29:02.227Z,-0.20
2024-01-15T19:34:24.175Z,-0.26
2024-01-15T19:39:45.976Z,-0.25
2024-01-15T19:45:08.236Z,-0.14
2024-01-15T19:50:30.233Z,-0.13
2024-01-15T19:55:52.176Z,-0.22
2024-01-15T20:01:14.136Z,-0.15
2024-01-15T20:06:36.138Z,-0.19
2024-01-15T20:11:58.107Z,-0.23
2024-01-15T20:17:19.946Z,-0.14
2024-01-15T20:22:41.846Z,-0.17
2024-01-15T20:28:03.908Z,-0.34
2024-01-15T20:33:26.005Z,-0.20
2024-01-15T20:38:47.919Z,-0.14
2024-01-15T20:44:10.350Z,-0.13
2024-01-15T20:49:32.247Z,-0.10
2024-01-15T20:54:54.207Z,-0.17
2024-01-15T21:00:16.616Z,-0.11
2024-01-15T21:05:38.467Z,-0.14
2024-01-15T21:11:01.032Z,-0.17
2024-01-15T21:16:26.244Z,-0.26
2024-01-15T21:21:49.011Z,-0.07
2024-01-15T21:27:10.845Z,-0.13
2024-01-15T21:32:32.591Z,-0.20
2024-01-15T21:37:54.563Z,-0.28
2024-01-15T21:43:16.449Z,-0.28
2024-01-15T21:48:41.281Z,-0.40
2024-01-15T21:54:04.819Z,-0.48
2024-01-15T21:59:27.357Z,-0.40
2024-01-15T22:04:49.224Z,-0.36
2024-01-15T22:10:11.777Z,-0.45
2024-01-15T22:15:33.620Z,-0.44
2024-01-15T22:20:57.400Z,-0.50
2024-01-15T22:26:19.287Z,-0.56
2024-01-15T22:31:42.365Z,-0.49
2024-01-15T22:37:05.709Z,-0.55
2024-01-15T22:42:27.739Z,-0.45
2024-01-15T22:47:49.817Z,-0.46
2024-01-15T22:53:11.884Z,-0.51
2024-01-15T22:58:33.987Z,-0.55
2024-01-15T23:03:56.315Z,-0.42
2024-01-15T23:09:18.861Z,-0.52
2024-01-15T23:14:40.891Z,-0.53
2024-01-15T23:20:02.972Z,-0.61
2024-01-15T23:25:25.006Z,-0.62
2024-01-15T23:30:46.890Z,-0.61
2024-01-15T23:36:09.870Z,-0.58
2024-01-15T23:41:32.584Z,-0.54
2024-01-15T23:46:54.457Z,-0.52
2024-01-15T23:52:16.373Z,-0.44
2024-01-15T23:57:38.183Z,-0.47
